sensor_id;sensor_type;location;lat;lon;timestamp;pressure;altitude;pressure_sealevel;temperature;humidity
25498;BME280;13406;53.380;7.226;2023-04-05T00:00:28;102996.13;;;2.69;100.00
25498;BME280;13406;53.380;7.226;2023-04-05T00:02:57;102971.94;;;2.61;100.00
25498;BME280;13406;53.380;7.226;2023-04-05T00:05:27;102981.66;;;2.75;100.00
25498;BME280;13406;53.380;7.226;2023-04-05T00:08:04;102847.19;;;1.64;100.00
25498;BME280;13406;53.380;7.226;2023-04-05T00:10:32;103012.31;;;2.50;100.00
25498;BME280;13406;53.380;7.226;2023-04-05T00:12:58;102985.66;;;2.67;100.00
25498;BME280;13406;53.380;7.226;2023-04-05T00:15:26;103004.19;;;2.67;100.00
25498;BME280;13406;53.380;7.226;2023-04-05T00:17:51;102997.09;;;2.97;100.00
25498;BME280;13406;53.380;7.226;2023-04-05T00:20:18;102954.41;;;2.44;100.00
25498;BME280;13406;53.380;7.226;2023-04-05T00:22:44;102986.09;;;2.88;100.00
25498;BME280;13406;53.380;7.226;2023-04-05T00:25:11;102967.69;;;2.72;100.00
25498;BME280;13406;53.380;7.226;2023-04-05T00:27:37;102952.63;;;2.44;100.00
25498;BME280;13406;53.380;7.226;2023-04-05T00:30:02;102971.50;;;2.24;100.00
25498;BME280;13406;53.380;7.226;2023-04-05T00:32:28;102955.84;;;2.49;100.00
25498;BME280;13406;53.380;7.226;2023-04-05T00:34:54;102972.56;;;2.36;100.00
25498;BME280;13406;53.380;7.226;2023-04-05T00:37:20;102941.16;;;2.30;100.00
25498;BME280;13406;53.380;7.226;2023-04-05T00:39:46;102971.44;;;2.54;100.00
25498;BME280;13406;53.380;7.226;2023-04-05T00:42:12;102975.22;;;2.50;100.00
25498;BME280;13406;53.380;7.226;2023-04-05T00:44:37;102944.88;;;2.41;100.00
25498;BME280;13406;53.380;7.226;2023-04-05T00:47:03;102962.44;;;2.42;100.00
25498;BME280;13406;53.380;7.226;2023-04-05T00:49:31;102981.13;;;2.55;100.00
25498;BME280;13406;53.380;7.226;2023-04-05T00:51:57;102972.84;;;2.60;100.00
25498;BME280;13406;53.380;7.226;2023-04-05T00:54:24;102959.50;;;2.18;100.00
25498;BME280;13406;53.380;7.226;2023-04-05T00:56:51;102944.28;;;2.36;100.00
25498;BME280;13406;53.380;7.226;2023-04-05T00:59:19;102928.41;;;2.36;100.00
25498;BME280;13406;53.380;7.226;2023-04-05T01:01:46;102925.28;;;2.30;100.00
25498;BME280;13406;53.380;7.226;2023-04-05T01:04:21;102912.59;;;2.20;100.00
25498;BME280;13406;53.380;7.226;2023-04-05T01:07:10;102949.13;;;2.44;100.00
25498;BME280;13406;53.380;7.226;2023-04-05T01:09:57;102900.16;;;1.92;100.00
25498;BME280;13406;53.380;7.226;2023-04-05T01:12:27;102947.59;;;2.11;100.00
25498;BME280;13406;53.380;7.226;2023-04-05T01:14:54;102956.97;;;2.45;100.00
25498;BME280;13406;53.380;7.226;2023-04-05T01:17:21;102949.78;;;2.62;100.00
25498;BME280;13406;53.380;7.226;2023-04-05T01:19:53;102931.44;;;2.44;100.00
25498;BME280;13406;53.380;7.226;2023-04-05T01:30:43;102934.25;;;2.13;100.00
25498;BME280;13406;53.380;7.226;2023-04-05T01:33:18;102950.53;;;2.35;100.00
25498;BME280;13406;53.380;7.226;2023-04-05T01:35:56;102951.31;;;2.37;100.00
25498;BME280;13406;53.380;7.226;2023-04-05T01:38:25;102915.81;;;2.11;100.00
25498;BME280;13406;53.380;7.226;2023-04-05T01:40:53;102948.63;;;2.23;100.00
25498;BME280;13406;53.380;7.226;2023-04-05T01:43:18;102936.81;;;2.14;100.00
25498;BME280;13406;53.380;7.226;2023-04-05T01:45:45;102928.72;;;2.01;100.00
25498;BME280;13406;53.380;7.226;2023-04-05T01:48:11;102940.19;;;2.16;100.00
25498;BME280;13406;53.380;7.226;2023-04-05T01:50:37;102943.44;;;2.36;100.00
25498;BME280;13406;53.380;7.226;2023-04-05T01:53:03;102930.94;;;2.23;100.00
25498;BME280;13406;53.380;7.226;2023-04-05T01:55:28;102926.31;;;2.27;100.00
25498;BME280;13406;53.380;7.226;2023-04-05T01:57:55;102872.84;;;1.77;100.00
25498;BME280;13406;53.380;7.226;2023-04-05T02:00:23;102917.97;;;2.04;100.00
25498;BME280;13406;53.380;7.226;2023-04-05T02:02:49;102940.31;;;2.29;100.00
25498;BME280;13406;53.380;7.226;2023-04-05T02:05:14;102951.53;;;2.04;100.00
25498;BME280;13406;53.380;7.226;2023-04-05T02:07:40;102938.31;;;1.74;100.00
25498;BME280;13406;53.380;7.226;2023-04-05T02:10:06;102941.09;;;1.87;100.00
25498;BME280;13406;53.380;7.226;2023-04-05T02:12:31;102947.88;;;1.91;100.00
25498;BME280;13406;53.380;7.226;2023-04-05T02:14:57;102906.13;;;1.96;100.00
25498;BME280;13406;53.380;7.226;2023-04-05T02:17:23;102936.78;;;1.70;100.00
25498;BME280;13406;53.380;7.226;2023-04-05T02:19:49;102936.06;;;1.52;100.00
25498;BME280;13406;53.380;7.226;2023-04-05T02:22:17;102956.97;;;1.87;100.00
25498;BME280;13406;53.380;7.226;2023-04-05T02:24:43;102966.41;;;1.91;100.00
25498;BME280;13406;53.380;7.226;2023-04-05T02:27:09;102957.28;;;1.50;100.00
25498;BME280;13406;53.380;7.226;2023-04-05T02:29:34;102969.66;;;1.66;100.00
25498;BME280;13406;53.380;7.226;2023-04-05T02:32:00;102953.78;;;1.50;100.00
25498;BME280;13406;53.380;7.226;2023-04-05T02:34:26;102817.25;;;1.19;100.00
25498;BME280;13406;53.380;7.226;2023-04-05T02:36:52;102963.66;;;1.78;100.00
25498;BME280;13406;53.380;7.226;2023-04-05T02:39:18;102964.00;;;1.72;100.00
25498;BME280;13406;53.380;7.226;2023-04-05T02:41:45;102939.94;;;2.21;100.00
25498;BME280;13406;53.380;7.226;2023-04-05T02:44:11;102951.16;;;2.10;100.00
25498;BME280;13406;53.380;7.226;2023-04-05T02:46:37;102941.66;;;1.92;100.00
25498;BME280;13406;53.380;7.226;2023-04-05T02:49:02;102806.06;;;1.13;100.00
25498;BME280;13406;53.380;7.226;2023-04-05T02:51:28;102894.41;;;1.55;100.00
25498;BME280;13406;53.380;7.226;2023-04-05T02:53:53;102902.63;;;1.35;100.00
25498;BME280;13406;53.380;7.226;2023-04-05T02:56:19;102893.38;;;1.58;100.00
25498;BME280;13406;53.380;7.226;2023-04-05T02:58:46;102934.50;;;1.64;100.00
25498;BME280;13406;53.380;7.226;2023-04-05T03:01:14;102931.81;;;1.79;100.00
25498;BME280;13406;53.380;7.226;2023-04-05T03:03:42;102933.94;;;1.73;100.00
25498;BME280;13406;53.380;7.226;2023-04-05T03:06:07;102932.69;;;1.64;100.00
25498;BME280;13406;53.380;7.226;2023-04-05T03:08:40;102928.81;;;1.86;100.00
25498;BME280;13406;53.380;7.226;2023-04-05T03:11:09;102921.44;;;1.61;100.00
25498;BME280;13406;53.380;7.226;2023-04-05T03:13:35;102900.16;;;1.48;100.00
25498;BME280;13406;53.380;7.226;2023-04-05T03:16:01;102859.97;;;1.11;100.00
25498;BME280;13406;53.380;7.226;2023-04-05T03:18:27;102924.31;;;1.72;100.00
25498;BME280;13406;53.380;7.226;2023-04-05T03:20:55;102905.63;;;1.45;100.00
25498;BME280;13406;53.380;7.226;2023-04-05T03:23:22;102923.13;;;1.62;100.00
25498;BME280;13406;53.380;7.226;2023-04-05T03:26:01;102910.63;;;1.49;100.00
25498;BME280;13406;53.380;7.226;2023-04-05T03:28:28;102840.44;;;0.98;100.00
25498;BME280;13406;53.380;7.226;2023-04-05T03:30:54;102886.72;;;1.21;100.00
25498;BME280;13406;53.380;7.226;2023-04-05T03:33:20;102871.25;;;1.29;100.00
25498;BME280;13406;53.380;7.226;2023-04-05T03:35:46;102898.47;;;1.15;100.00
25498;BME280;13406;53.380;7.226;2023-04-05T03:38:12;102927.31;;;0.88;100.00
25498;BME280;13406;53.380;7.226;2023-04-05T03:40:38;102941.97;;;0.94;100.00
25498;BME280;13406;53.380;7.226;2023-04-05T03:43:03;102936.09;;;1.36;100.00
25498;BME280;13406;53.380;7.226;2023-04-05T03:45:29;102784.69;;;0.56;100.00
25498;BME280;13406;53.380;7.226;2023-04-05T03:47:55;102917.41;;;1.23;100.00
25498;BME280;13406;53.380;7.226;2023-04-05T03:50:21;102912.56;;;1.00;100.00
25498;BME280;13406;53.380;7.226;2023-04-05T03:52:46;102830.66;;;0.84;100.00
25498;BME280;13406;53.380;7.226;2023-04-05T03:55:12;102909.41;;;1.25;100.00
25498;BME280;13406;53.380;7.226;2023-04-05T03:57:39;102919.63;;;1.31;100.00
25498;BME280;13406;53.380;7.226;2023-04-05T04:00:05;102909.06;;;1.31;100.00
25498;BME280;13406;53.380;7.226;2023-04-05T04:02:46;102867.53;;;1.17;100.00
25498;BME280;13406;53.380;7.226;2023-04-05T04:05:14;102888.75;;;1.16;100.00
25498;BME280;13406;53.380;7.226;2023-04-05T04:07:43;102910.09;;;0.97;100.00
25498;BME280;13406;53.380;7.226;2023-04-05T04:10:11;102928.16;;;0.88;100.00
25498;BME280;13406;53.380;7.226;2023-04-05T04:12:37;102913.25;;;1.19;100.00
25498;BME280;13406;53.380;7.226;2023-04-05T04:15:03;102920.06;;;0.76;100.00
25498;BME280;13406;53.380;7.226;2023-04-05T04:17:31;102903.78;;;0.83;100.00
25498;BME280;13406;53.380;7.226;2023-04-05T04:19:57;102926.03;;;0.79;100.00
25498;BME280;13406;53.380;7.226;2023-04-05T04:22:23;102906.75;;;0.77;100.00
25498;BME280;13406;53.380;7.226;2023-04-05T04:24:53;102916.81;;;1.18;100.00
25498;BME280;13406;53.380;7.226;2023-04-05T04:27:19;102916.34;;;0.96;100.00
25498;BME280;13406;53.380;7.226;2023-04-05T04:29:48;102909.63;;;0.41;100.00
25498;BME280;13406;53.380;7.226;2023-04-05T04:32:15;102934.41;;;0.54;100.00
25498;BME280;13406;53.380;7.226;2023-04-05T04:34:41;102947.50;;;0.73;100.00
25498;BME280;13406;53.380;7.226;2023-04-05T04:37:13;102926.63;;;0.84;100.00
25498;BME280;13406;53.380;7.226;2023-04-05T04:39:45;102842.25;;;0.50;100.00
25498;BME280;13406;53.380;7.226;2023-04-05T04:42:15;102931.44;;;0.60;100.00
25498;BME280;13406;53.380;7.226;2023-04-05T04:44:47;102947.44;;;1.06;100.00
25498;BME280;13406;53.380;7.226;2023-04-05T04:47:13;102916.06;;;1.16;100.00
25498;BME280;13406;53.380;7.226;2023-04-05T04:49:41;102938.47;;;1.09;100.00
25498;BME280;13406;53.380;7.226;2023-04-05T04:52:07;102925.44;;;1.06;100.00
25498;BME280;13406;53.380;7.226;2023-04-05T04:54:34;102925.69;;;1.17;100.00
25498;BME280;13406;53.380;7.226;2023-04-05T04:57:08;102858.44;;;0.75;100.00
25498;BME280;13406;53.380;7.226;2023-04-05T04:59:35;102924.34;;;0.94;100.00
25498;BME280;13406;53.380;7.226;2023-04-05T05:02:01;102927.06;;;1.08;100.00
25498;BME280;13406;53.380;7.226;2023-04-05T05:04:26;102918.47;;;1.05;100.00
25498;BME280;13406;53.380;7.226;2023-04-05T05:06:52;102905.84;;;0.78;100.00
25498;BME280;13406;53.380;7.226;2023-04-05T05:09:18;102924.50;;;0.91;100.00
25498;BME280;13406;53.380;7.226;2023-04-05T05:11:43;102926.03;;;1.11;100.00
25498;BME280;13406;53.380;7.226;2023-04-05T05:14:09;102924.75;;;1.18;100.00
25498;BME280;13406;53.380;7.226;2023-04-05T05:16:34;102824.34;;;0.55;100.00
25498;BME280;13406;53.380;7.226;2023-04-05T05:19:00;102915.44;;;0.63;100.00
25498;BME280;13406;53.380;7.226;2023-04-05T05:21:25;102925.69;;;1.01;100.00
25498;BME280;13406;53.380;7.226;2023-04-05T05:23:52;102906.34;;;0.85;100.00
25498;BME280;13406;53.380;7.226;2023-04-05T05:26:17;102840.47;;;0.66;100.00
25498;BME280;13406;53.380;7.226;2023-04-05T05:28:43;102925.09;;;0.80;100.00
25498;BME280;13406;53.380;7.226;2023-04-05T05:31:10;102930.66;;;1.07;100.00
25498;BME280;13406;53.380;7.226;2023-04-05T05:33:36;102922.16;;;0.69;100.00
25498;BME280;13406;53.380;7.226;2023-04-05T05:36:01;102910.66;;;0.54;100.00
25498;BME280;13406;53.380;7.226;2023-04-05T05:38:28;102969.06;;;0.48;100.00
25498;BME280;13406;53.380;7.226;2023-04-05T05:40:56;102945.31;;;0.97;100.00
25498;BME280;13406;53.380;7.226;2023-04-05T05:43:22;102922.88;;;0.73;100.00
25498;BME280;13406;53.380;7.226;2023-04-05T05:45:48;102846.38;;;0.22;100.00
25498;BME280;13406;53.380;7.226;2023-04-05T05:48:14;102960.13;;;1.16;100.00
25498;BME280;13406;53.380;7.226;2023-04-05T05:50:40;102952.31;;;1.14;100.00
25498;BME280;13406;53.380;7.226;2023-04-05T05:53:06;102857.16;;;0.51;100.00
25498;BME280;13406;53.380;7.226;2023-04-05T05:55:31;102807.81;;;0.19;100.00
25498;BME280;13406;53.380;7.226;2023-04-05T05:57:57;102893.47;;;0.79;100.00
25498;BME280;13406;53.380;7.226;2023-04-05T06:00:22;102958.84;;;1.54;100.00
25498;BME280;13406;53.380;7.226;2023-04-05T06:02:48;102948.44;;;1.51;100.00
25498;BME280;13406;53.380;7.226;2023-04-05T06:05:14;102924.75;;;1.18;100.00
25498;BME280;13406;53.380;7.226;2023-04-05T06:07:39;102912.81;;;1.11;100.00
25498;BME280;13406;53.380;7.226;2023-04-05T06:10:06;102901.84;;;1.19;100.00
25498;BME280;13406;53.380;7.226;2023-04-05T06:12:32;102874.38;;;1.05;100.00
25498;BME280;13406;53.380;7.226;2023-04-05T06:15:31;102669.63;;;-0.27;100.00
25498;BME280;13406;53.380;7.226;2023-04-05T06:18:21;102782.53;;;0.63;100.00
25498;BME280;13406;53.380;7.226;2023-04-05T06:20:58;102856.28;;;1.13;100.00
25498;BME280;13406;53.380;7.226;2023-04-05T06:23:36;102758.03;;;0.91;100.00
25498;BME280;13406;53.380;7.226;2023-04-05T06:26:28;102857.19;;;1.58;100.00
25498;BME280;13406;53.380;7.226;2023-04-05T06:29:06;102760.81;;;1.04;100.00
25498;BME280;13406;53.380;7.226;2023-04-05T06:31:42;102604.63;;;-0.12;100.00
25498;BME280;13406;53.380;7.226;2023-04-05T06:40:07;102905.66;;;1.89;100.00
25498;BME280;13406;53.380;7.226;2023-04-05T06:42:34;102919.31;;;2.12;100.00
25498;BME280;13406;53.380;7.226;2023-04-05T06:45:03;102901.50;;;1.99;100.00
25498;BME280;13406;53.380;7.226;2023-04-05T06:47:38;102921.03;;;2.41;100.00
25498;BME280;13406;53.380;7.226;2023-04-05T06:50:08;102874.66;;;2.34;100.00
25498;BME280;13406;53.380;7.226;2023-04-05T06:52:38;102746.59;;;1.65;100.00
25498;BME280;13406;53.380;7.226;2023-04-05T06:55:04;102832.59;;;2.15;100.00
25498;BME280;13406;53.380;7.226;2023-04-05T06:57:34;102803.72;;;2.39;100.00
25498;BME280;13406;53.380;7.226;2023-04-05T07:00:00;102703.75;;;2.01;100.00
25498;BME280;13406;53.380;7.226;2023-04-05T07:02:33;102681.03;;;2.12;100.00
25498;BME280;13406;53.380;7.226;2023-04-05T07:05:05;102680.19;;;2.38;100.00
25498;BME280;13406;53.380;7.226;2023-04-05T07:07:38;102772.19;;;3.03;100.00
25498;BME280;13406;53.380;7.226;2023-04-05T07:10:05;102669.75;;;2.49;100.00
25498;BME280;13406;53.380;7.226;2023-04-05T07:12:37;102742.97;;;3.30;100.00
25498;BME280;13406;53.380;7.226;2023-04-05T07:15:04;102757.00;;;3.45;100.00
25498;BME280;13406;53.380;7.226;2023-04-05T07:17:30;102737.56;;;3.32;100.00
25498;BME280;13406;53.380;7.226;2023-04-05T07:19:56;102756.66;;;3.75;100.00
25498;BME280;13406;53.380;7.226;2023-04-05T07:22:21;102710.50;;;3.52;100.00
25498;BME280;13406;53.380;7.226;2023-04-05T07:24:46;102678.34;;;3.57;100.00
25498;BME280;13406;53.380;7.226;2023-04-05T07:27:13;102714.63;;;3.69;100.00
25498;BME280;13406;53.380;7.226;2023-04-05T07:29:39;102704.00;;;3.69;100.00
25498;BME280;13406;53.380;7.226;2023-04-05T07:32:08;102738.91;;;3.76;100.00
25498;BME280;13406;53.380;7.226;2023-04-05T07:34:34;102737.66;;;3.81;100.00
25498;BME280;13406;53.380;7.226;2023-04-05T07:36:59;102673.56;;;3.62;100.00
25498;BME280;13406;53.380;7.226;2023-04-05T07:39:25;102669.28;;;3.85;100.00
25498;BME280;13406;53.380;7.226;2023-04-05T07:41:51;102721.88;;;4.17;100.00
25498;BME280;13406;53.380;7.226;2023-04-05T07:44:17;102667.31;;;4.00;100.00
25498;BME280;13406;53.380;7.226;2023-04-05T07:46:42;102665.16;;;4.05;100.00
25498;BME280;13406;53.380;7.226;2023-04-05T07:49:11;102713.00;;;4.53;100.00
25498;BME280;13406;53.380;7.226;2023-04-05T07:51:36;102708.38;;;4.68;100.00
25498;BME280;13406;53.380;7.226;2023-04-05T07:54:03;102705.31;;;4.61;100.00
25498;BME280;13406;53.380;7.226;2023-04-05T07:56:30;102696.16;;;4.65;100.00
25498;BME280;13406;53.380;7.226;2023-04-05T07:58:56;102709.09;;;4.70;100.00
25498;BME280;13406;53.380;7.226;2023-04-05T08:01:21;102704.69;;;4.82;100.00
25498;BME280;13406;53.380;7.226;2023-04-05T08:03:52;102705.66;;;4.81;100.00
25498;BME280;13406;53.380;7.226;2023-04-05T08:06:18;102702.41;;;4.88;100.00
25498;BME280;13406;53.380;7.226;2023-04-05T08:08:46;102675.09;;;4.97;100.00
25498;BME280;13406;53.380;7.226;2023-04-05T08:11:12;102671.03;;;5.05;100.00
25498;BME280;13406;53.380;7.226;2023-04-05T08:13:38;102702.75;;;5.30;100.00
25498;BME280;13406;53.380;7.226;2023-04-05T08:16:06;102682.41;;;5.29;100.00
25498;BME280;13406;53.380;7.226;2023-04-05T08:18:32;102704.22;;;5.46;100.00
25498;BME280;13406;53.380;7.226;2023-04-05T08:20:58;102699.00;;;5.55;100.00
25498;BME280;13406;53.380;7.226;2023-04-05T08:23:23;102680.84;;;5.38;100.00
25498;BME280;13406;53.380;7.226;2023-04-05T08:25:49;102703.16;;;5.59;100.00
25498;BME280;13406;53.380;7.226;2023-04-05T08:28:14;102682.09;;;5.68;100.00
25498;BME280;13406;53.380;7.226;2023-04-05T08:30:40;102682.69;;;5.82;100.00
25498;BME280;13406;53.380;7.226;2023-04-05T08:33:06;102669.97;;;5.75;100.00
25498;BME280;13406;53.380;7.226;2023-04-05T08:35:34;102680.38;;;5.78;100.00
25498;BME280;13406;53.380;7.226;2023-04-05T08:38:00;102676.63;;;6.03;100.00
25498;BME280;13406;53.380;7.226;2023-04-05T08:40:32;102659.06;;;5.89;100.00
25498;BME280;13406;53.380;7.226;2023-04-05T08:43:13;102648.06;;;5.82;100.00
25498;BME280;13406;53.380;7.226;2023-04-05T08:45:46;102654.72;;;6.10;100.00
25498;BME280;13406;53.380;7.226;2023-04-05T08:48:13;102663.28;;;6.14;100.00
25498;BME280;13406;53.380;7.226;2023-04-05T08:50:39;102645.88;;;5.99;100.00
25498;BME280;13406;53.380;7.226;2023-04-05T08:53:06;102653.13;;;6.08;100.00
25498;BME280;13406;53.380;7.226;2023-04-05T08:55:38;102620.31;;;6.07;100.00
25498;BME280;13406;53.380;7.226;2023-04-05T08:58:11;102653.91;;;6.31;100.00
25498;BME280;13406;53.380;7.226;2023-04-05T09:00:38;102633.25;;;6.44;100.00
25498;BME280;13406;53.380;7.226;2023-04-05T09:03:04;102586.81;;;6.26;100.00
25498;BME280;13406;53.380;7.226;2023-04-05T09:05:31;102522.66;;;5.85;100.00
25498;BME280;13406;53.380;7.226;2023-04-05T09:08:00;102628.34;;;6.61;100.00
25498;BME280;13406;53.380;7.226;2023-04-05T09:10:26;102616.50;;;6.53;100.00
25498;BME280;13406;53.380;7.226;2023-04-05T09:12:53;102620.22;;;6.83;100.00
25498;BME280;13406;53.380;7.226;2023-04-05T09:15:20;102611.63;;;6.79;100.00
25498;BME280;13406;53.380;7.226;2023-04-05T09:17:49;102596.03;;;6.75;100.00
25498;BME280;13406;53.380;7.226;2023-04-05T09:20:14;102563.94;;;6.65;100.00
25498;BME280;13406;53.380;7.226;2023-04-05T09:22:44;102578.97;;;6.87;100.00
25498;BME280;13406;53.380;7.226;2023-04-05T09:25:11;102512.78;;;6.50;100.00
25498;BME280;13406;53.380;7.226;2023-04-05T09:27:55;102532.16;;;7.04;100.00
25498;BME280;13406;53.380;7.226;2023-04-05T09:30:21;102521.78;;;7.11;100.00
25498;BME280;13406;53.380;7.226;2023-04-05T09:32:50;102495.34;;;6.98;100.00
25498;BME280;13406;53.380;7.226;2023-04-05T09:35:27;102513.56;;;7.23;100.00
25498;BME280;13406;53.380;7.226;2023-04-05T09:38:03;102500.88;;;7.16;100.00
25498;BME280;13406;53.380;7.226;2023-04-05T09:40:47;102498.44;;;7.43;100.00
25498;BME280;13406;53.380;7.226;2023-04-05T09:43:36;102484.31;;;7.22;100.00
25498;BME280;13406;53.380;7.226;2023-04-05T09:46:02;102489.16;;;7.47;100.00
25498;BME280;13406;53.380;7.226;2023-04-05T09:48:50;102428.16;;;7.43;100.00
25498;BME280;13406;53.380;7.226;2023-04-05T09:51:17;102437.00;;;7.34;100.00
25498;BME280;13406;53.380;7.226;2023-04-05T09:54:00;102476.66;;;7.48;100.00
25498;BME280;13406;53.380;7.226;2023-04-05T09:56:27;102467.25;;;7.54;100.00
25498;BME280;13406;53.380;7.226;2023-04-05T09:58:58;102468.31;;;7.22;100.00
25498;BME280;13406;53.380;7.226;2023-04-05T10:01:29;102470.91;;;7.53;100.00
25498;BME280;13406;53.380;7.226;2023-04-05T10:03:56;102465.97;;;7.77;100.00
25498;BME280;13406;53.380;7.226;2023-04-05T10:06:21;102471.03;;;7.80;100.00
25498;BME280;13406;53.380;7.226;2023-04-05T10:08:47;102458.81;;;7.68;100.00
25498;BME280;13406;53.380;7.226;2023-04-05T10:11:17;102456.16;;;7.58;100.00
25498;BME280;13406;53.380;7.226;2023-04-05T10:13:43;102456.72;;;7.81;100.00
25498;BME280;13406;53.380;7.226;2023-04-05T10:16:12;102448.81;;;7.89;100.00
25498;BME280;13406;53.380;7.226;2023-04-05T10:18:47;102441.66;;;7.80;100.00
25498;BME280;13406;53.380;7.226;2023-04-05T10:21:20;102458.53;;;7.81;100.00
25498;BME280;13406;53.380;7.226;2023-04-05T10:23:50;102438.72;;;7.93;100.00
25498;BME280;13406;53.380;7.226;2023-04-05T10:26:44;102455.59;;;7.93;100.00
25498;BME280;13406;53.380;7.226;2023-04-05T10:29:16;102450.09;;;8.05;100.00
25498;BME280;13406;53.380;7.226;2023-04-05T10:31:58;102439.09;;;8.18;100.00
25498;BME280;13406;53.380;7.226;2023-04-05T10:34:52;102452.41;;;8.27;100.00
25498;BME280;13406;53.380;7.226;2023-04-05T10:37:35;102440.00;;;8.36;100.00
25498;BME280;13406;53.380;7.226;2023-04-05T10:40:07;102353.34;;;7.91;100.00
25498;BME280;13406;53.380;7.226;2023-04-05T10:42:45;102417.00;;;8.15;100.00
25498;BME280;13406;53.380;7.226;2023-04-05T10:45:12;102431.19;;;8.26;100.00
25498;BME280;13406;53.380;7.226;2023-04-05T10:47:49;102436.44;;;8.08;100.00
25498;BME280;13406;53.380;7.226;2023-04-05T10:50:21;102442.56;;;8.37;100.00
25498;BME280;13406;53.380;7.226;2023-04-05T10:52:48;102405.22;;;8.08;100.00
25498;BME280;13406;53.380;7.226;2023-04-05T10:55:15;102428.34;;;8.27;100.00
25498;BME280;13406;53.380;7.226;2023-04-05T10:57:41;102420.31;;;8.56;100.00
25498;BME280;13406;53.380;7.226;2023-04-05T11:00:09;102415.63;;;8.58;100.00
25498;BME280;13406;53.380;7.226;2023-04-05T11:02:36;102419.63;;;8.45;100.00
25498;BME280;13406;53.380;7.226;2023-04-05T11:05:03;102408.94;;;8.35;100.00
25498;BME280;13406;53.380;7.226;2023-04-05T11:07:41;102400.81;;;8.17;100.00
25498;BME280;13406;53.380;7.226;2023-04-05T11:10:15;102407.69;;;8.39;100.00
25498;BME280;13406;53.380;7.226;2023-04-05T11:18:10;102407.09;;;8.35;100.00
25498;BME280;13406;53.380;7.226;2023-04-05T11:20:40;102395.34;;;8.56;100.00
25498;BME280;13406;53.380;7.226;2023-04-05T11:23:16;102402.22;;;8.96;100.00
25498;BME280;13406;53.380;7.226;2023-04-05T11:25:51;102394.59;;;9.19;100.00
25498;BME280;13406;53.380;7.226;2023-04-05T11:28:33;102395.13;;;9.22;100.00
25498;BME280;13406;53.380;7.226;2023-04-05T11:31:27;102398.09;;;9.01;100.00
25498;BME280;13406;53.380;7.226;2023-04-05T11:33:57;102383.25;;;9.07;100.00
25498;BME280;13406;53.380;7.226;2023-04-05T11:36:38;102381.59;;;9.24;100.00
25498;BME280;13406;53.380;7.226;2023-04-05T11:42:03;102371.53;;;8.90;100.00
25498;BME280;13406;53.380;7.226;2023-04-05T11:44:39;102368.75;;;9.10;100.00
25498;BME280;13406;53.380;7.226;2023-04-05T11:47:05;102366.69;;;9.21;100.00
25498;BME280;13406;53.380;7.226;2023-04-05T11:49:32;102294.13;;;8.61;100.00
25498;BME280;13406;53.380;7.226;2023-04-05T11:51:58;102374.34;;;9.52;100.00
25498;BME280;13406;53.380;7.226;2023-04-05T11:54:29;102348.34;;;9.70;100.00
25498;BME280;13406;53.380;7.226;2023-04-05T11:56:55;102349.03;;;9.72;100.00
25498;BME280;13406;53.380;7.226;2023-04-05T11:59:35;102352.06;;;9.78;100.00
25498;BME280;13406;53.380;7.226;2023-04-05T12:02:03;102354.84;;;9.68;100.00
25498;BME280;13406;53.380;7.226;2023-04-05T12:04:30;102348.06;;;9.56;100.00
25498;BME280;13406;53.380;7.226;2023-04-05T12:07:16;102328.19;;;9.40;100.00
25498;BME280;13406;53.380;7.226;2023-04-05T12:10:08;102347.03;;;9.74;100.00
25498;BME280;13406;53.380;7.226;2023-04-05T12:12:39;102316.78;;;9.82;100.00
25498;BME280;13406;53.380;7.226;2023-04-05T12:15:07;102338.00;;;9.32;100.00
25498;BME280;13406;53.380;7.226;2023-04-05T12:17:51;102333.78;;;9.47;100.00
25498;BME280;13406;53.380;7.226;2023-04-05T12:20:20;102336.03;;;9.60;100.00
25498;BME280;13406;53.380;7.226;2023-04-05T12:22:48;102342.31;;;9.94;100.00
25498;BME280;13406;53.380;7.226;2023-04-05T12:25:15;102325.41;;;9.94;100.00
25498;BME280;13406;53.380;7.226;2023-04-05T12:27:41;102301.59;;;9.91;100.00
25498;BME280;13406;53.380;7.226;2023-04-05T12:30:20;102330.94;;;9.92;100.00
25498;BME280;13406;53.380;7.226;2023-04-05T12:32:50;102338.09;;;9.92;100.00
25498;BME280;13406;53.380;7.226;2023-04-05T12:35:28;102339.63;;;10.21;100.00
25498;BME280;13406;53.380;7.226;2023-04-05T12:38:00;102312.47;;;9.63;100.00
25498;BME280;13406;53.380;7.226;2023-04-05T12:40:27;102295.38;;;9.38;100.00
25498;BME280;13406;53.380;7.226;2023-04-05T12:43:02;102315.44;;;9.78;100.00
25498;BME280;13406;53.380;7.226;2023-04-05T12:45:28;102276.31;;;9.67;100.00
25498;BME280;13406;53.380;7.226;2023-04-05T12:47:59;102266.06;;;9.63;100.00
25498;BME280;13406;53.380;7.226;2023-04-05T12:50:27;102306.44;;;10.22;100.00
25498;BME280;13406;53.380;7.226;2023-04-05T12:52:57;102229.31;;;9.47;100.00
25498;BME280;13406;53.380;7.226;2023-04-05T12:55:24;102296.47;;;10.32;100.00
25498;BME280;13406;53.380;7.226;2023-04-05T12:57:55;102301.75;;;10.58;100.00
25498;BME280;13406;53.380;7.226;2023-04-05T13:00:24;102293.69;;;10.58;100.00
25498;BME280;13406;53.380;7.226;2023-04-05T13:02:52;102290.28;;;10.05;100.00
25498;BME280;13406;53.380;7.226;2023-04-05T13:05:20;102270.53;;;9.54;100.00
25498;BME280;13406;53.380;7.226;2023-04-05T13:07:46;102248.44;;;9.86;100.00
25498;BME280;13406;53.380;7.226;2023-04-05T13:10:11;102288.44;;;10.06;100.00
25498;BME280;13406;53.380;7.226;2023-04-05T13:12:37;102285.19;;;10.71;100.00
25498;BME280;13406;53.380;7.226;2023-04-05T13:15:03;102270.81;;;10.88;100.00
25498;BME280;13406;53.380;7.226;2023-04-05T13:17:28;102265.19;;;10.57;100.00
25498;BME280;13406;53.380;7.226;2023-04-05T13:19:53;102274.47;;;9.94;100.00
25498;BME280;13406;53.380;7.226;2023-04-05T13:22:19;102254.25;;;10.42;100.00